Time;durP1;ratioP1;P1;durP2;ratioP2;P2;SDS_P1;SDS_P2;PMS_P1;PMS_P2;Temp;Humidity;BMP_temperature;BMP_pressure;BME280_temperature;BME280_humidity;BME280_pressure;Samples;Min_cycle;Max_cycle;Signal;HPM_P1;HPM_P2
2023/05/14 00:00:27;;;;;;;7.03;5.70;;;23.80;49.60;;;;;;5044321;28;20112;-69
2023/05/14 00:02:53;;;;;;;7.10;5.90;;;23.80;49.60;;;;;;5036309;28;20061;-69
2023/05/14 00:05:20;;;;;;;7.32;5.80;;;23.80;49.50;;;;;;5034981;28;20049;-68
2023/05/14 00:07:47;;;;;;;6.43;5.70;;;23.90;49.50;;;;;;5038457;28;20170;-69
2023/05/14 00:10:13;;;;;;;6.28;5.47;;;23.80;49.40;;;;;;5036935;28;20029;-68
2023/05/14 00:12:39;;;;;;;6.82;5.10;;;23.80;49.40;;;;;;5040062;28;20508;-69
2023/05/14 00:15:06;;;;;;;5.00;4.50;;;23.80;49.40;;;;;;5034761;28;20029;-69
2023/05/14 00:17:31;;;;;;;5.25;4.00;;;23.80;49.40;;;;;;5038619;28;20029;-69
2023/05/14 00:19:58;;;;;;;5.30;4.25;;;23.80;49.40;;;;;;5038252;28;20033;-68
2023/05/14 00:22:24;;;;;;;4.90;4.22;;;23.80;49.40;;;;;;5037088;28;20441;-68
2023/05/14 00:24:49;;;;;;;5.47;4.15;;;23.80;49.40;;;;;;5043120;28;20048;-69
2023/05/14 00:27:15;;;;;;;6.07;4.88;;;23.80;49.40;;;;;;5040609;28;20029;-68
2023/05/14 00:29:40;;;;;;;5.82;4.45;;;23.80;49.30;;;;;;5041360;28;20095;-68
2023/05/14 00:32:06;;;;;;;5.78;4.80;;;23.80;49.30;;;;;;5040781;28;20445;-69
2023/05/14 00:34:32;;;;;;;5.28;4.72;;;23.80;49.20;;;;;;5040670;28;20108;-68
2023/05/14 00:36:58;;;;;;;5.70;4.75;;;23.80;49.20;;;;;;5042390;28;20422;-69
2023/05/14 00:39:23;;;;;;;6.15;4.60;;;23.80;49.20;;;;;;5041110;28;20040;-69
2023/05/14 00:41:49;;;;;;;5.85;4.60;;;23.80;49.20;;;;;;5040357;28;20445;-68
2023/05/14 00:44:14;;;;;;;5.60;4.90;;;23.80;49.20;;;;;;5044901;28;20098;-69
2023/05/14 00:46:42;;;;;;;5.50;4.70;;;23.80;49.20;;;;;;5041445;28;20029;-68
2023/05/14 00:49:08;;;;;;;5.15;4.55;;;23.70;49.20;;;;;;5042936;28;20159;-68
2023/05/14 00:51:33;;;;;;;5.25;4.32;;;23.70;49.20;;;;;;5044464;28;20104;-69
2023/05/14 00:53:59;;;;;;;5.25;4.53;;;23.70;49.20;;;;;;5041038;28;20086;-69
2023/05/14 00:56:26;;;;;;;5.78;4.75;;;23.70;49.20;;;;;;5043080;28;20170;-69
2023/05/14 00:58:52;;;;;;;6.00;4.65;;;23.70;49.20;;;;;;5042039;28;20107;-69
2023/05/14 01:01:17;;;;;;;5.60;4.30;;;23.70;49.20;;;;;;5041670;28;20589;-70
2023/05/14 01:03:43;;;;;;;5.28;4.28;;;23.70;49.20;;;;;;5040121;28;20033;-69
2023/05/14 01:06:33;;;;;;;5.40;4.57;;;23.70;49.20;;;;;;5040238;28;20025;-69
2023/05/14 01:09:02;;;;;;;5.35;4.50;;;23.60;49.20;;;;;;5039911;28;20031;-69
2023/05/14 01:11:42;;;;;;;5.07;4.32;;;23.60;49.20;;;;;;5041632;28;20021;-68
2023/05/14 01:14:13;;;;;;;5.30;4.38;;;23.60;49.20;;;;;;5042949;28;20028;-68
2023/05/14 01:16:39;;;;;;;5.50;4.03;;;23.60;49.30;;;;;;5041858;28;20057;-69
2023/05/14 01:19:16;;;;;;;5.22;4.13;;;23.50;49.20;;;;;;5042379;28;20035;-69
2023/05/14 01:21:44;;;;;;;4.90;4.20;;;23.50;49.30;;;;;;5039593;28;20025;-69
2023/05/14 01:24:10;;;;;;;4.85;3.90;;;23.50;49.30;;;;;;5040916;28;20121;-69
2023/05/14 01:26:36;;;;;;;4.72;3.90;;;23.50;49.30;;;;;;5041029;28;20575;-69
2023/05/14 01:29:25;;;;;;;4.40;3.78;;;23.50;49.30;;;;;;5041584;28;20036;-70
2023/05/14 01:31:53;;;;;;;5.03;3.95;;;23.50;49.30;;;;;;5039589;28;20466;-69
2023/05/14 01:34:21;;;;;;;4.10;3.50;;;23.40;49.30;;;;;;5041203;28;20099;-69
2023/05/14 01:36:47;;;;;;;4.55;3.80;;;23.50;49.40;;;;;;5039990;28;20021;-69
2023/05/14 01:39:14;;;;;;;4.32;3.65;;;23.40;49.30;;;;;;5041919;28;20135;-69
2023/05/14 01:41:41;;;;;;;4.82;4.13;;;23.40;49.30;;;;;;5036785;28;20057;-70
2023/05/14 01:44:08;;;;;;;4.10;3.50;;;23.40;49.40;;;;;;5038584;28;20419;-68
2023/05/14 01:46:34;;;;;;;4.07;3.58;;;23.40;49.40;;;;;;5041783;28;20029;-69
2023/05/14 01:49:00;;;;;;;4.78;3.80;;;23.40;49.40;;;;;;5037842;28;20075;-69
2023/05/14 01:51:26;;;;;;;4.70;3.88;;;23.30;49.40;;;;;;5039498;28;20057;-69
2023/05/14 01:53:51;;;;;;;4.40;3.67;;;23.40;49.50;;;;;;5046215;28;20029;-69
2023/05/14 01:56:18;;;;;;;3.90;3.33;;;23.30;49.40;;;;;;5038906;28;20036;-69
2023/05/14 01:58:44;;;;;;;3.90;3.40;;;23.30;49.40;;;;;;5039018;28;20067;-69
2023/05/14 02:01:09;;;;;;;4.30;3.40;;;23.30;49.40;;;;;;5047552;28;20088;-69
2023/05/14 02:03:35;;;;;;;4.38;3.70;;;23.20;49.40;;;;;;5037909;28;20462;-69
2023/05/14 02:06:01;;;;;;;3.85;3.30;;;23.20;49.40;;;;;;5035371;28;20469;-69
2023/05/14 02:08:26;;;;;;;4.10;3.20;;;23.20;49.40;;;;;;5039713;28;20091;-69
2023/05/14 02:10:52;;;;;;;3.50;3.03;;;23.20;49.40;;;;;;5040983;28;20035;-70
2023/05/14 02:13:18;;;;;;;4.05;3.13;;;23.20;49.40;;;;;;5041349;28;20143;-69
2023/05/14 02:15:43;;;;;;;4.10;3.40;;;23.20;49.50;;;;;;5036805;28;20431;-69
2023/05/14 02:18:09;;;;;;;4.47;3.25;;;23.20;49.50;;;;;;5040421;28;20087;-69
2023/05/14 02:20:34;;;;;;;3.72;3.28;;;23.20;49.50;;;;;;5041935;28;20477;-69
2023/05/14 02:23:00;;;;;;;4.50;3.15;;;23.10;49.50;;;;;;5040896;28;20045;-68
2023/05/14 02:25:25;;;;;;;3.95;3.30;;;23.10;49.50;;;;;;5041993;28;20032;-69
2023/05/14 02:27:51;;;;;;;5.60;3.20;;;23.10;49.50;;;;;;5038830;28;20032;-69
2023/05/14 02:30:17;;;;;;;3.75;3.08;;;23.10;49.60;;;;;;5035621;28;20044;-68
2023/05/14 02:32:42;;;;;;;4.03;3.10;;;23.00;49.50;;;;;;5035962;28;20037;-69
2023/05/14 02:35:08;;;;;;;3.78;3.08;;;23.00;49.60;;;;;;5039191;28;20107;-69
2023/05/14 02:37:34;;;;;;;4.05;3.13;;;23.00;49.60;;;;;;5037817;28;20025;-69
2023/05/14 02:39:59;;;;;;;4.00;3.05;;;23.00;49.70;;;;;;5037918;28;20055;-69
2023/05/14 02:42:25;;;;;;;3.75;3.10;;;23.00;49.70;;;;;;5040457;28;20123;-69
2023/05/14 02:44:51;;;;;;;3.88;3.38;;;23.00;49.70;;;;;;5037613;28;20032;-69
2023/05/14 02:47:17;;;;;;;3.65;2.97;;;23.00;49.70;;;;;;5037224;28;20033;-69
2023/05/14 02:49:43;;;;;;;3.47;2.90;;;22.90;49.70;;;;;;5040452;28;20353;-69
2023/05/14 02:52:09;;;;;;;3.95;3.20;;;22.90;49.70;;;;;;5033446;28;20025;-69
2023/05/14 02:54:34;;;;;;;3.80;2.80;;;22.90;49.70;;;;;;5035966;28;20386;-69
2023/05/14 02:57:00;;;;;;;4.20;2.92;;;22.90;49.70;;;;;;5033895;28;20021;-69
2023/05/14 02:59:26;;;;;;;4.13;3.40;;;22.90;49.70;;;;;;5037578;28;20033;-69
2023/05/14 03:01:52;;;;;;;3.85;3.05;;;22.90;49.70;;;;;;5039675;28;20061;-69
2023/05/14 03:04:17;;;;;;;3.58;3.05;;;22.90;49.80;;;;;;5037388;28;20079;-69
2023/05/14 03:06:43;;;;;;;3.95;3.20;;;22.90;49.80;;;;;;5037854;28;20056;-68
2023/05/14 03:09:08;;;;;;;3.28;2.85;;;22.80;49.80;;;;;;5040262;28;20530;-69
2023/05/14 03:11:34;;;;;;;3.40;2.72;;;22.80;49.80;;;;;;5038052;28;20087;-69
2023/05/14 03:14:00;;;;;;;3.35;2.85;;;22.80;49.80;;;;;;5038200;28;20045;-69
2023/05/14 03:16:26;;;;;;;3.47;2.97;;;22.80;49.80;;;;;;5040911;28;20029;-69
2023/05/14 03:18:51;;;;;;;3.58;2.90;;;22.80;49.80;;;;;;5039613;28;20025;-69
2023/05/14 03:21:17;;;;;;;3.65;2.83;;;22.80;49.80;;;;;;5037187;28;20029;-69
2023/05/14 03:23:43;;;;;;;3.40;2.80;;;22.80;49.80;;;;;;5038316;28;20041;-69
2023/05/14 03:26:08;;;;;;;3.33;2.90;;;22.70;49.80;;;;;;5036779;28;20367;-69
2023/05/14 03:28:34;;;;;;;3.58;2.92;;;22.70;49.80;;;;;;5038287;28;20048;-69
2023/05/14 03:31:00;;;;;;;3.38;2.90;;;22.70;49.80;;;;;;5038181;28;20096;-69
2023/05/14 03:33:25;;;;;;;3.55;2.83;;;22.70;49.90;;;;;;5041117;28;20025;-69
2023/05/14 03:35:51;;;;;;;3.10;2.53;;;22.70;49.90;;;;;;5038377;28;20040;-69
2023/05/14 03:38:17;;;;;;;3.17;2.88;;;22.70;49.90;;;;;;5038640;28;20060;-69
2023/05/14 03:40:44;;;;;;;3.40;2.50;;;22.70;49.90;;;;;;5038350;28;20091;-69
2023/05/14 03:43:10;;;;;;;3.30;2.78;;;22.60;49.90;;;;;;5038804;28;20493;-69
2023/05/14 03:45:35;;;;;;;3.53;2.85;;;22.60;49.90;;;;;;5037099;28;20076;-69
2023/05/14 03:48:01;;;;;;;3.40;2.90;;;22.60;49.90;;;;;;5036545;28;20065;-69
2023/05/14 03:50:27;;;;;;;3.25;2.78;;;22.60;49.90;;;;;;5038720;28;20112;-69
2023/05/14 03:52:53;;;;;;;3.55;2.80;;;22.60;49.90;;;;;;5039150;28;20025;-68
2023/05/14 03:55:19;;;;;;;3.20;2.70;;;22.60;50.00;;;;;;5039405;28;20183;-68
2023/05/14 03:57:46;;;;;;;3.33;2.75;;;22.60;50.00;;;;;;5035270;28;20215;-68
2023/05/14 04:00:12;;;;;;;3.50;2.75;;;22.60;50.00;;;;;;5038688;28;20029;-69
2023/05/14 04:02:38;;;;;;;3.45;2.65;;;22.60;50.00;;;;;;5038408;28;20393;-69
2023/05/14 04:05:04;;;;;;;3.58;2.80;;;22.50;50.00;;;;;;5035263;28;20063;-69
2023/05/14 04:07:29;;;;;;;3.35;2.63;;;22.60;50.50;;;;;;5036842;28;20029;-69
2023/05/14 04:09:55;;;;;;;4.10;2.75;;;22.60;50.10;;;;;;5037969;28;20037;-69
2023/05/14 04:12:20;;;;;;;3.38;2.80;;;22.50;50.00;;;;;;5035399;28;20041;-69
2023/05/14 04:14:46;;;;;;;2.88;2.40;;;22.50;50.00;;;;;;5040131;28;20028;-69
2023/05/14 04:17:12;;;;;;;3.80;2.78;;;22.50;50.00;;;;;;5037512;28;20705;-69
2023/05/14 04:19:38;;;;;;;3.40;2.58;;;22.50;50.00;;;;;;5035601;28;20040;-69
2023/05/14 04:22:04;;;;;;;3.40;2.60;;;22.50;50.10;;;;;;5034257;28;20502;-69
2023/05/14 04:24:29;;;;;;;3.38;2.65;;;22.50;50.10;;;;;;5037064;28;20489;-69
2023/05/14 04:26:55;;;;;;;3.30;2.60;;;22.50;50.10;;;;;;5038653;28;20195;-69
2023/05/14 04:29:20;;;;;;;3.20;2.50;;;22.50;50.10;;;;;;5037381;28;20427;-69
2023/05/14 04:31:48;;;;;;;3.10;2.60;;;22.40;50.00;;;;;;5038893;28;20030;-69
2023/05/14 04:34:14;;;;;;;3.10;2.40;;;22.40;50.00;;;;;;5038971;28;20042;-70
2023/05/14 04:36:40;;;;;;;2.85;2.33;;;22.40;50.10;;;;;;5034136;28;20461;-69
2023/05/14 04:39:05;;;;;;;3.08;2.60;;;22.40;50.10;;;;;;5036191;28;20116;-69
2023/05/14 04:41:31;;;;;;;2.95;2.63;;;22.40;50.10;;;;;;5035898;28;20049;-69
2023/05/14 04:43:59;;;;;;;3.10;2.22;;;22.40;50.10;;;;;;5034636;28;20029;-69
2023/05/14 04:46:25;;;;;;;3.17;2.60;;;22.40;50.10;;;;;;5035488;28;20103;-69
2023/05/14 04:48:51;;;;;;;3.22;2.63;;;22.40;50.10;;;;;;5036764;28;20037;-69
2023/05/14 04:51:16;;;;;;;3.22;2.30;;;22.30;50.10;;;;;;5037648;28;20049;-69
2023/05/14 04:53:42;;;;;;;3.00;2.47;;;22.40;50.10;;;;;;5035527;28;21000;-69
2023/05/14 04:56:07;;;;;;;3.70;2.65;;;22.40;50.10;;;;;;5038099;28;20030;-69
2023/05/14 04:58:33;;;;;;;3.10;2.40;;;22.30;50.10;;;;;;5038309;28;20033;-70
2023/05/14 05:00:58;;;;;;;2.97;2.45;;;22.40;50.20;;;;;;5036844;28;20046;-69
2023/05/14 05:03:24;;;;;;;2.90;2.40;;;22.30;50.10;;;;;;5035342;28;20032;-69
2023/05/14 05:05:50;;;;;;;3.00;2.55;;;22.30;50.10;;;;;;5037193;28;20392;-69
2023/05/14 05:08:16;;;;;;;2.70;2.25;;;22.30;50.20;;;;;;5035973;28;20053;-69
2023/05/14 05:10:42;;;;;;;2.95;2.53;;;22.30;50.20;;;;;;5037793;28;20075;-69
2023/05/14 05:13:07;;;;;;;2.60;2.30;;;22.30;50.20;;;;;;5040435;28;20018;-69
2023/05/14 05:15:33;;;;;;;3.10;2.40;;;22.30;50.20;;;;;;5044154;28;20040;-70
2023/05/14 05:17:59;;;;;;;3.00;2.20;;;22.30;50.20;;;;;;5040960;28;20031;-70
2023/05/14 05:20:26;;;;;;;3.17;2.30;;;22.20;50.10;;;;;;5039182;28;20534;-70
2023/05/14 05:22:52;;;;;;;3.10;2.70;;;22.20;50.10;;;;;;5042003;28;20136;-70
2023/05/14 05:25:18;;;;;;;2.75;2.30;;;22.30;50.20;;;;;;5039700;28;20096;-69
2023/05/14 05:27:44;;;;;;;3.17;2.63;;;22.20;50.20;;;;;;5041432;28;20043;-69
2023/05/14 05:30:10;;;;;;;2.90;2.30;;;22.20;50.20;;;;;;5041645;28;20030;-69
2023/05/14 05:32:35;;;;;;;2.90;2.20;;;22.20;50.20;;;;;;5039515;28;20487;-70
2023/05/14 05:35:02;;;;;;;3.47;2.72;;;22.20;50.20;;;;;;5041378;28;20104;-69
2023/05/14 05:37:27;;;;;;;2.80;2.28;;;22.20;50.20;;;;;;5039247;28;20491;-70
2023/05/14 05:39:53;;;;;;;3.28;2.70;;;22.20;50.20;;;;;;5037711;28;20025;-70
2023/05/14 05:42:18;;;;;;;3.33;2.40;;;22.20;50.20;;;;;;5041784;28;20637;-70
2023/05/14 05:44:44;;;;;;;2.70;2.22;;;22.20;50.30;;;;;;5041237;28;20041;-70
2023/05/14 05:47:10;;;;;;;2.63;2.30;;;22.20;50.30;;;;;;5040133;28;20049;-69
2023/05/14 05:49:36;;;;;;;2.80;2.35;;;22.20;50.30;;;;;;5040234;28;20109;-70
2023/05/14 05:52:02;;;;;;;2.85;2.40;;;22.20;50.30;;;;;;5040662;28;20050;-69
2023/05/14 05:54:31;;;;;;;2.67;2.33;;;22.20;50.30;;;;;;5039612;28;20021;-70
2023/05/14 05:56:57;;;;;;;3.58;2.47;;;22.20;50.30;;;;;;5041392;28;20033;-69
2023/05/14 05:59:23;;;;;;;2.88;2.42;;;22.20;50.30;;;;;;5040751;28;20497;-70
2023/05/14 06:01:49;;;;;;;3.30;2.50;;;22.10;50.30;;;;;;5035618;28;20025;-69
2023/05/14 06:04:15;;;;;;;3.20;2.28;;;22.10;50.30;;;;;;5038207;28;20489;-70
2023/05/14 06:06:41;;;;;;;2.92;2.40;;;22.10;50.40;;;;;;5038851;28;20208;-70
2023/05/14 06:09:07;;;;;;;3.33;2.60;;;22.10;50.30;;;;;;5036148;28;20090;-70
2023/05/14 06:11:33;;;;;;;3.15;2.30;;;22.10;50.40;;;;;;5039102;28;20548;-70
2023/05/14 06:13:59;;;;;;;2.92;2.20;;;22.10;50.40;;;;;;5040351;28;20101;-69
2023/05/14 06:16:25;;;;;;;2.75;2.30;;;22.10;50.40;;;;;;5040195;28;20021;-70
2023/05/14 06:18:51;;;;;;;2.90;2.20;;;22.10;50.40;;;;;;5039905;28;20032;-70
2023/05/14 06:21:17;;;;;;;3.53;2.35;;;22.10;50.40;;;;;;5035680;28;20037;-70
2023/05/14 06:23:43;;;;;;;3.20;2.30;;;22.10;50.40;;;;;;5039775;28;20021;-69
2023/05/14 06:26:09;;;;;;;2.72;2.22;;;22.10;50.50;;;;;;5037510;28;20318;-70
2023/05/14 06:28:34;;;;;;;3.20;2.30;;;22.00;50.40;;;;;;5038479;28;20551;-70
2023/05/14 06:31:00;;;;;;;3.08;2.20;;;22.10;50.40;;;;;;5040005;28;20535;-70
2023/05/14 06:33:29;;;;;;;2.67;2.20;;;22.10;50.40;;;;;;5039975;28;20026;-70
2023/05/14 06:35:59;;;;;;;3.17;2.40;;;22.00;50.40;;;;;;5040442;28;20048;-70
2023/05/14 06:38:25;;;;;;;2.78;2.30;;;22.00;50.40;;;;;;5040996;28;20028;-70
2023/05/14 06:40:54;;;;;;;2.70;2.20;;;22.00;50.50;;;;;;5039026;28;20025;-70
2023/05/14 06:43:20;;;;;;;3.33;2.37;;;22.00;50.50;;;;;;5038792;28;20033;-70
2023/05/14 06:45:49;;;;;;;2.80;2.17;;;22.00;50.50;;;;;;5039023;28;20025;-69
2023/05/14 06:48:17;;;;;;;2.35;1.88;;;22.00;50.50;;;;;;5037494;28;20060;-70
2023/05/14 06:50:43;;;;;;;2.90;2.28;;;22.00;50.50;;;;;;5038541;28;20128;-70
2023/05/14 06:53:09;;;;;;;2.60;2.20;;;22.00;50.50;;;;;;5037424;28;20014;-69
2023/05/14 06:55:35;;;;;;;2.50;2.00;;;22.00;50.50;;;;;;5037497;28;20376;-70
2023/05/14 06:58:00;;;;;;;4.35;2.10;;;22.00;50.50;;;;;;5038763;28;20021;-70
2023/05/14 07:00:27;;;;;;;2.90;2.10;;;22.00;50.60;;;;;;5036747;28;20032;-70
2023/05/14 07:02:53;;;;;;;3.47;2.00;;;21.90;50.50;;;;;;5038334;28;20037;-70
2023/05/14 07:05:18;;;;;;;2.78;2.10;;;22.00;50.50;;;;;;5037112;28;20484;-70
2023/05/14 07:07:44;;;;;;;2.63;2.05;;;22.00;50.50;;;;;;5038148;28;20033;-70
2023/05/14 07:10:10;;;;;;;2.50;2.00;;;22.00;50.60;;;;;;5037987;28;20036;-70
2023/05/14 07:12:36;;;;;;;3.53;2.20;;;22.00;50.60;;;;;;5037417;28;20052;-70
2023/05/14 07:15:01;;;;;;;2.42;1.90;;;22.00;50.60;;;;;;5038400;28;20117;-70
2023/05/14 07:17:27;;;;;;;2.50;1.80;;;22.00;50.60;;;;;;5038764;28;20021;-70
2023/05/14 07:19:54;;;;;;;2.60;2.00;;;22.00;50.60;;;;;;5035320;28;20041;-70
2023/05/14 07:22:20;;;;;;;2.80;2.10;;;22.00;50.60;;;;;;5036824;28;20102;-70
2023/05/14 07:24:46;;;;;;;2.90;2.28;;;22.00;50.60;;;;;;5037185;28;20033;-70
2023/05/14 07:27:12;;;;;;;2.80;2.10;;;21.90;50.60;;;;;;5036620;28;20166;-70
2023/05/14 07:29:37;;;;;;;4.15;2.20;;;21.90;50.60;;;;;;5038415;28;20621;-70
2023/05/14 07:32:03;;;;;;;2.78;2.00;;;21.90;50.60;;;;;;5037098;28;20045;-70
2023/05/14 07:34:29;;;;;;;2.70;2.10;;;21.90;50.60;;;;;;5038932;28;20029;-69
2023/05/14 07:36:55;;;;;;;3.30;2.00;;;21.90;50.60;;;;;;5034137;28;20021;-70
2023/05/14 07:39:20;;;;;;;3.95;2.20;;;21.90;50.60;;;;;;5033912;28;20041;-69
2023/05/14 07:41:46;;;;;;;2.95;2.00;;;21.90;50.70;;;;;;5038038;28;20147;-69
2023/05/14 07:44:12;;;;;;;3.88;2.10;;;21.90;50.70;;;;;;5038647;28;20404;-70
2023/05/14 07:46:37;;;;;;;2.38;1.80;;;21.90;50.70;;;;;;5036647;28;20151;-70
2023/05/14 07:49:03;;;;;;;2.97;2.20;;;21.90;50.70;;;;;;5035110;28;20435;-70
2023/05/14 07:51:29;;;;;;;2.80;2.03;;;21.90;50.70;;;;;;5039883;28;20025;-70
2023/05/14 07:53:54;;;;;;;4.05;2.40;;;21.90;50.70;;;;;;5037236;28;20503;-70
2023/05/14 07:56:21;;;;;;;2.60;2.10;;;21.90;50.70;;;;;;5037825;28;20079;-70
2023/05/14 07:58:47;;;;;;;2.65;1.95;;;21.90;50.70;;;;;;5038068;28;20448;-70
2023/05/14 08:01:13;;;;;;;2.63;1.88;;;21.90;50.70;;;;;;5036907;28;20160;-70
2023/05/14 08:03:38;;;;;;;3.03;2.00;;;21.90;50.70;;;;;;5037479;28;20057;-70
2023/05/14 08:06:04;;;;;;;3.20;2.08;;;21.90;50.70;;;;;;5036849;28;20385;-70
2023/05/14 08:08:30;;;;;;;3.90;2.00;;;21.90;50.70;;;;;;5038909;28;20485;-70
2023/05/14 08:10:56;;;;;;;3.45;2.10;;;21.80;50.70;;;;;;5035891;28;20443;-70
2023/05/14 08:13:21;;;;;;;3.00;1.90;;;21.80;50.70;;;;;;5036905;28;20031;-70
2023/05/14 08:15:48;;;;;;;2.83;2.10;;;21.80;50.70;;;;;;5039260;28;20028;-70
2023/05/14 08:18:13;;;;;;;3.05;1.90;;;21.80;50.70;;;;;;5036227;28;20477;-70
2023/05/14 08:20:39;;;;;;;2.60;2.00;;;21.90;50.70;;;;;;5038136;28;20112;-70
2023/05/14 08:23:06;;;;;;;3.70;2.20;;;21.80;50.70;;;;;;5039174;28;20033;-70
2023/05/14 08:25:32;;;;;;;2.97;2.00;;;21.80;50.70;;;;;;5038092;28;20029;-70
2023/05/14 08:27:58;;;;;;;2.83;2.13;;;21.80;50.70;;;;;;5039902;28;20070;-70
2023/05/14 08:30:24;;;;;;;3.58;2.20;;;21.80;50.70;;;;;;5036880;28;20034;-70
2023/05/14 08:32:50;;;;;;;3.95;2.33;;;21.80;51.20;;;;;;5036007;28;20021;-69
2023/05/14 08:35:19;;;;;;;3.95;1.98;;;21.80;50.70;;;;;;5037654;28;20032;-69
2023/05/14 08:37:44;;;;;;;3.93;2.10;;;21.80;50.70;;;;;;5037460;28;20431;-70
2023/05/14 08:40:11;;;;;;;2.83;1.90;;;21.80;50.70;;;;;;5035768;28;20264;-69
2023/05/14 08:42:41;;;;;;;2.78;2.10;;;21.80;50.70;;;;;;5037722;28;20431;-70
2023/05/14 08:45:24;;;;;;;2.85;2.08;;;21.80;50.70;;;;;;5040928;28;20029;-69
2023/05/14 08:47:50;;;;;;;2.85;1.90;;;21.80;50.70;;;;;;5038060;28;20032;-69
2023/05/14 08:50:17;;;;;;;2.53;1.85;;;21.80;50.70;;;;;;5041611;28;20698;-69
2023/05/14 08:52:43;;;;;;;2.60;1.80;;;21.80;50.70;;;;;;5042145;28;20049;-70
2023/05/14 08:55:10;;;;;;;2.42;1.70;;;21.80;50.70;;;;;;5038930;28;20415;-69
2023/05/14 08:57:36;;;;;;;2.33;1.83;;;21.80;50.80;;;;;;5040318;28;20485;-70
2023/05/14 09:00:10;;;;;;;3.33;2.17;;;21.80;51.30;;;;;;5041583;28;20106;-70
2023/05/14 09:02:38;;;;;;;3.38;2.63;;;21.90;50.70;;;;;;5041001;28;20034;-70
2023/05/14 09:05:06;;;;;;;4.07;2.33;;;22.00;50.60;;;;;;5040961;28;20403;-70
2023/05/14 09:07:32;;;;;;;3.70;2.38;;;22.10;50.50;;;;;;5042591;28;20515;-70
2023/05/14 09:09:58;;;;;;;3.47;2.40;;;22.20;50.40;;;;;;5041578;28;20545;-71
2023/05/14 09:12:25;;;;;;;3.42;2.40;;;22.30;50.40;;;;;;5041249;28;20124;-71
2023/05/14 09:14:50;;;;;;;5.72;2.50;;;22.40;50.30;;;;;;5043210;28;20109;-71
2023/05/14 09:17:17;;;;;;;4.72;2.42;;;22.50;50.20;;;;;;5044245;28;20396;-71
2023/05/14 09:19:46;;;;;;;4.35;2.53;;;22.50;50.00;;;;;;5042534;28;20017;-70
2023/05/14 09:22:14;;;;;;;3.90;2.92;;;22.60;49.80;;;;;;5041037;28;20420;-70
2023/05/14 09:24:40;;;;;;;3.40;2.80;;;22.70;49.70;;;;;;5041383;28;20026;-70
2023/05/14 09:27:07;;;;;;;5.78;3.00;;;22.80;49.60;;;;;;5042496;28;20861;-71
2023/05/14 09:29:33;;;;;;;3.80;2.78;;;22.90;49.50;;;;;;5041418;28;20083;-70
2023/05/14 09:32:04;;;;;;;4.00;2.70;;;23.00;49.30;;;;;;5041870;28;20121;-71
2023/05/14 09:34:33;;;;;;;4.80;2.60;;;23.00;49.30;;;;;;5041685;28;20028;-70
2023/05/14 09:37:03;;;;;;;3.72;2.60;;;23.20;49.20;;;;;;5042249;28;20049;-71
2023/05/14 09:39:31;;;;;;;3.80;2.38;;;23.20;48.90;;;;;;5048467;28;20028;-71
2023/05/14 09:41:57;;;;;;;3.90;2.63;;;23.20;48.80;;;;;;5038750;28;20021;-71
2023/05/14 09:44:23;;;;;;;4.03;2.40;;;23.20;48.80;;;;;;5039696;28;20021;-71
2023/05/14 09:46:50;;;;;;;3.47;2.67;;;23.20;48.80;;;;;;5043124;28;20326;-69
2023/05/14 09:49:16;;;;;;;3.67;2.30;;;23.20;48.80;;;;;;5041044;28;20033;-71
2023/05/14 09:51:42;;;;;;;4.00;2.72;;;23.30;48.80;;;;;;5041096;28;20037;-71
2023/05/14 09:54:08;;;;;;;3.45;2.53;;;23.30;48.80;;;;;;5040544;28;20122;-71
2023/05/14 09:56:35;;;;;;;3.67;2.53;;;23.30;48.80;;;;;;5036708;28;20433;-70
2023/05/14 09:59:01;;;;;;;4.38;3.03;;;23.30;48.80;;;;;;5039160;28;20034;-71
2023/05/14 10:01:29;;;;;;;4.43;3.15;;;23.30;48.80;;;;;;5036160;28;20429;-70
2023/05/14 10:03:55;;;;;;;3.10;2.35;;;23.40;48.80;;;;;;5040028;28;20085;-71
2023/05/14 10:06:31;;;;;;;3.25;2.38;;;23.40;48.80;;;;;;5041609;28;20117;-70
2023/05/14 10:09:01;;;;;;;4.63;2.40;;;23.40;48.90;;;;;;5041656;28;20024;-70
2023/05/14 10:11:31;;;;;;;4.65;2.88;;;23.40;48.80;;;;;;5037071;28;20040;-70
2023/05/14 10:14:07;;;;;;;4.65;2.78;;;23.40;48.80;;;;;;5040555;28;20426;-70
2023/05/14 10:16:42;;;;;;;4.03;2.33;;;23.40;48.70;;;;;;5040021;28;20024;-69
2023/05/14 10:19:10;;;;;;;4.05;2.70;;;23.40;48.70;;;;;;5043490;28;20041;-70
2023/05/14 10:21:39;;;;;;;3.60;2.40;;;23.40;48.70;;;;;;5071700;28;20057;-70
2023/05/14 10:24:06;;;;;;;3.72;2.78;;;23.40;48.70;;;;;;5044508;28;20159;-71
2023/05/14 10:26:38;;;;;;;3.05;2.42;;;23.50;48.70;;;;;;5041656;28;20036;-71
2023/05/14 10:29:13;;;;;;;3.40;2.53;;;23.50;48.70;;;;;;5047678;28;20033;-71
2023/05/14 10:31:54;;;;;;;4.53;2.88;;;23.50;48.70;;;;;;5041465;28;20021;-70
2023/05/14 10:34:40;;;;;;;3.85;3.00;;;23.50;48.70;;;;;;5046516;28;20432;-71
2023/05/14 10:37:10;;;;;;;5.28;2.72;;;23.50;48.60;;;;;;5042887;28;20017;-71
2023/05/14 10:39:48;;;;;;;4.13;2.60;;;23.50;48.70;;;;;;5040649;28;20434;-71
2023/05/14 10:42:18;;;;;;;3.73;2.47;;;23.50;48.70;;;;;;5038422;28;20045;-70
2023/05/14 10:45:09;;;;;;;4.53;2.80;;;23.50;48.90;;;;;;5036144;28;20748;-71
2023/05/14 10:47:36;;;;;;;3.33;2.40;;;23.50;48.80;;;;;;5034707;28;20059;-71
2023/05/14 10:50:07;;;;;;;3.75;2.70;;;23.50;48.80;;;;;;5040699;28;20033;-71
2023/05/14 10:52:36;;;;;;;4.82;2.67;;;23.50;48.80;;;;;;5040628;28;20029;-70
2023/05/14 10:55:06;;;;;;;5.82;2.80;;;23.50;48.80;;;;;;5035940;28;20373;-70
2023/05/14 10:57:34;;;;;;;3.20;2.30;;;23.50;48.80;;;;;;5036486;28;20538;-70
2023/05/14 11:00:00;;;;;;;3.63;2.38;;;23.50;48.80;;;;;;5037708;28;20033;-70
2023/05/14 11:02:38;;;;;;;5.38;2.63;;;23.50;48.90;;;;;;5042433;28;20029;-72
2023/05/14 11:05:15;;;;;;;4.13;2.78;;;23.50;49.00;;;;;;5040279;28;20029;-70
2023/05/14 11:07:45;;;;;;;3.63;2.58;;;23.50;48.90;;;;;;5039851;28;20029;-72
2023/05/14 11:10:13;;;;;;;4.25;2.50;;;23.50;48.90;;;;;;5040125;28;20044;-72
2023/05/14 11:12:40;;;;;;;4.28;2.80;;;23.60;49.00;;;;;;5039202;28;20109;-71
2023/05/14 11:15:08;;;;;;;4.93;2.92;;;23.50;48.90;;;;;;5046992;28;20585;-71
2023/05/14 11:17:35;;;;;;;5.05;2.40;;;23.60;48.90;;;;;;5041806;28;20024;-71
2023/05/14 11:20:00;;;;;;;3.30;2.10;;;23.60;49.00;;;;;;5047722;28;20120;-72
2023/05/14 11:22:26;;;;;;;2.70;2.00;;;23.50;49.00;;;;;;5040452;28;20171;-72
2023/05/14 11:24:52;;;;;;;3.53;2.35;;;23.60;49.00;;;;;;5039308;28;20029;-72
2023/05/14 11:27:18;;;;;;;3.97;2.60;;;23.60;49.10;;;;;;5036774;28;20037;-72
2023/05/14 11:29:47;;;;;;;4.53;2.70;;;23.60;49.10;;;;;;5037997;28;20048;-71
2023/05/14 11:32:14;;;;;;;;;;;23.60;49.10;;;;;;5071840;28;20478;-70
2023/05/14 11:34:40;;;;;;;3.45;2.30;;;23.60;49.10;;;;;;5038815;28;19909;-70
2023/05/14 11:37:07;;;;;;;4.32;2.40;;;23.60;49.10;;;;;;5039544;28;20029;-70
2023/05/14 11:39:34;;;;;;;3.95;2.33;;;23.60;49.10;;;;;;5038460;28;20086;-72
2023/05/14 11:42:20;;;;;;;3.35;2.20;;;23.60;49.10;;;;;;5045922;28;20477;-71
2023/05/14 11:44:50;;;;;;;3.55;2.50;;;23.60;49.10;;;;;;5043074;28;20029;-70
2023/05/14 11:47:17;;;;;;;3.70;2.45;;;23.60;49.20;;;;;;5039378;28;20029;-70
2023/05/14 11:49:43;;;;;;;3.25;2.25;;;23.60;49.20;;;;;;5040040;28;20037;-69
2023/05/14 11:52:11;;;;;;;3.42;2.58;;;23.60;49.20;;;;;;5036949;28;20108;-71
2023/05/14 11:54:37;;;;;;;3.30;2.35;;;23.70;49.20;;;;;;5038608;28;20086;-71
2023/05/14 11:57:09;;;;;;;3.63;2.25;;;23.60;49.20;;;;;;5039174;28;20465;-70
2023/05/14 11:59:34;;;;;;;3.50;2.50;;;23.70;49.30;;;;;;5041601;28;20523;-70
2023/05/14 12:02:01;;;;;;;3.00;2.00;;;23.60;49.30;;;;;;5038022;28;20120;-70
2023/05/14 12:04:28;;;;;;;3.92;2.50;;;23.60;49.30;;;;;;5037638;28;20064;-71
2023/05/14 12:06:57;;;;;;;3.53;2.50;;;23.70;49.30;;;;;;5041618;28;20036;-71
2023/05/14 12:09:23;;;;;;;3.50;2.47;;;23.60;49.20;;;;;;5041164;28;20043;-72
2023/05/14 12:11:50;;;;;;;4.47;2.47;;;23.60;49.10;;;;;;5036316;28;20116;-72
2023/05/14 12:14:20;;;;;;;3.20;2.40;;;23.60;49.10;;;;;;5039924;28;20026;-71
2023/05/14 12:16:46;;;;;;;4.28;2.60;;;23.60;49.10;;;;;;5040734;28;20029;-70
2023/05/14 12:19:17;;;;;;;3.45;2.33;;;23.70;49.10;;;;;;5037606;28;20033;-70
2023/05/14 12:21:44;;;;;;;5.25;2.50;;;23.60;49.00;;;;;;5038848;28;20033;-70
2023/05/14 12:24:15;;;;;;;3.25;2.15;;;23.60;49.00;;;;;;5038951;28;20036;-70
2023/05/14 12:26:48;;;;;;;3.25;2.40;;;23.70;48.90;;;;;;5037529;28;20104;-71
2023/05/14 12:29:15;;;;;;;2.92;2.15;;;23.60;48.80;;;;;;5001534;28;1124305;-70
2023/05/14 12:31:48;;;;;;;4.63;2.60;;;23.60;48.80;;;;;;5041791;28;20435;-71
2023/05/14 12:34:15;;;;;;;4.60;2.38;;;23.60;48.80;;;;;;5041822;28;20048;-70
2023/05/14 12:36:41;;;;;;;3.53;2.45;;;23.60;48.80;;;;;;5040630;28;20035;-70
2023/05/14 12:39:08;;;;;;;3.13;2.40;;;23.60;48.70;;;;;;5039295;28;20029;-70
2023/05/14 12:41:34;;;;;;;4.47;2.25;;;23.70;48.80;;;;;;5040292;28;20497;-70
2023/05/14 12:44:02;;;;;;;4.63;2.53;;;23.60;48.70;;;;;;5038650;28;20037;-70
2023/05/14 12:46:28;;;;;;;3.58;2.60;;;23.60;48.80;;;;;;5070326;28;20027;-70